»·PEaware :: N5055J L08-KSBD

N5055J :: L08-KSBD

FLIGHT INFORMATION

Flight Status: Arrived
Operator: Privately registered:
United States
More flights under this callsign
Pilot: Scott M. (16181)
Aircraft: Unknown
(X-EF)
More flights by this aircraft type
Origin: L08 Borrego Valley
United States
Destination: KSBD San Bernardino Intl
United States
More flights between these airports :: More routes between these airports
Route:
File this flight plan on PilotEdge
Remarks:
Altitude:
(Current/Filed)
6,500ft
Speed:
(Current/Filed)
100kts
Departed: 14-Aug-18 05:54 PM
Arrived: 14-Aug-18 06:49 PM
Distance/Time
Traveled:
69nm/0:55
Distance/Time
To Go:
Arrived

Flight Plot

Page will automatically refresh every two minutes.


Map Options




Map Legend


Flown Route
Filed Route
Departure Airport
Arrival Airport
Navaid (VOR, NDB)
Fix

Horizontal Profiles

Position Reports

Time Latitude Longitude Heading Altitude Ground
Speed
14-Aug-18 17:45 33.257760 -116.323794 179 518ft 0kts
14-Aug-18 17:46 33.257760 -116.323794 179 518ft 0kts
14-Aug-18 17:47 33.257760 -116.323794 179 518ft 0kts
14-Aug-18 17:48 33.257760 -116.323794 179 518ft 0kts
14-Aug-18 17:49 33.257760 -116.323794 179 518ft 0kts
14-Aug-18 17:50 33.257683 -116.323751 131 518ft 5kts
14-Aug-18 17:51 33.258310 -116.321575 92 518ft 13kts
14-Aug-18 17:52 33.258370 -116.317641 88 520ft 18kts
14-Aug-18 17:53 33.258502 -116.312759 66 522ft 0kts
14-Aug-18 17:54 33.258910 -116.312585 342 522ft 9kts
14-Aug-18 17:55 33.259942 -116.328114 302 1055ft 77kts
14-Aug-18 17:56 33.275735 -116.344340 329 2080ft 76kts
14-Aug-18 17:57 33.291636 -116.360583 309 3032ft 78kts
14-Aug-18 17:58 33.305208 -116.380884 316 3938ft 80kts
14-Aug-18 17:59 33.321784 -116.398666 316 4791ft 82kts
14-Aug-18 18:00 33.338137 -116.417641 315 5609ft 83kts
14-Aug-18 18:01 33.354529 -116.437288 312 6365ft 86kts
14-Aug-18 18:02 33.372070 -116.458718 312 6537ft 85kts
14-Aug-18 18:03 33.388406 -116.479011 315 6548ft 88kts
14-Aug-18 18:04 33.406263 -116.499875 316 6550ft 90kts
14-Aug-18 18:05 33.424219 -116.521979 313 6396ft 96kts
14-Aug-18 18:06 33.440455 -116.543737 312 6373ft 81kts
14-Aug-18 18:07 33.455335 -116.564605 317 6383ft 87kts
14-Aug-18 18:08 33.471157 -116.579997 318 6387ft 90kts
14-Aug-18 18:09 33.491414 -116.604989 320 6393ft 90kts
14-Aug-18 18:10 33.509717 -116.625112 325 6399ft 89kts
14-Aug-18 18:11 33.525013 -116.641775 320 6402ft 90kts
14-Aug-18 18:12 33.544439 -116.660445 305 6387ft 72kts
14-Aug-18 18:13 33.556861 -116.674023 308 6393ft 73kts
14-Aug-18 18:14 33.573015 -116.689237 310 6439ft 73kts
14-Aug-18 18:15 33.591744 -116.707864 312 6429ft 73kts
14-Aug-18 18:16 33.604501 -116.721115 307 6477ft 74kts
14-Aug-18 18:17 33.619851 -116.738215 309 6455ft 77kts
14-Aug-18 18:18 33.638152 -116.759821 303 6373ft 80kts
14-Aug-18 18:19 33.651308 -116.775509 306 6371ft 80kts
14-Aug-18 18:20 33.666750 -116.794624 306 6236ft 85kts
14-Aug-18 18:21 33.683143 -116.813350 307 5664ft 79kts
14-Aug-18 18:22 33.698173 -116.831042 312 5278ft 71kts
14-Aug-18 18:23 33.712634 -116.848394 307 4883ft 72kts
14-Aug-18 18:24 33.726460 -116.865019 319 4583ft 70kts
14-Aug-18 18:25 33.743843 -116.874058 310 4511ft 69kts
14-Aug-18 18:26 33.760927 -116.885939 321 4539ft 74kts
14-Aug-18 18:27 33.777418 -116.899253 317 4679ft 72kts
14-Aug-18 18:28 33.793735 -116.913426 318 4745ft 73kts
14-Aug-18 18:29 33.811164 -116.927210 320 4757ft 77kts
14-Aug-18 18:30 33.828185 -116.942310 314 4686ft 74kts
14-Aug-18 18:31 33.843688 -116.956719 313 4687ft 70kts
14-Aug-18 18:32 33.859140 -116.972620 311 4554ft 74kts
14-Aug-18 18:33 33.873568 -116.989297 308 4476ft 69kts
14-Aug-18 18:34 33.887658 -117.004254 309 4511ft 68kts
14-Aug-18 18:35 33.901521 -117.019584 309 4590ft 67kts
14-Aug-18 18:36 33.915308 -117.034490 307 4642ft 68kts
14-Aug-18 18:37 33.929069 -117.050872 305 4538ft 70kts
14-Aug-18 18:38 33.944657 -117.066536 321 4390ft 77kts
14-Aug-18 18:39 33.962561 -117.080338 320 4093ft 77kts
14-Aug-18 18:40 33.981175 -117.093882 323 3505ft 78kts
14-Aug-18 18:41 33.999148 -117.106305 320 3160ft 73kts
14-Aug-18 18:42 34.016468 -117.119037 320 3025ft 74kts
14-Aug-18 18:43 34.034125 -117.131193 325 3022ft 74kts
14-Aug-18 18:44 34.052378 -117.143802 318 2806ft 76kts
14-Aug-18 18:45 34.070615 -117.156266 323 2491ft 75kts
14-Aug-18 18:46 34.088877 -117.167834 324 2117ft 70kts
14-Aug-18 18:47 34.104460 -117.179101 309 1833ft 59kts
14-Aug-18 18:48 34.106709 -117.194926 252 1642ft 51kts
14-Aug-18 18:49 34.102250 -117.211276 250 1346ft 49kts
14-Aug-18 18:50 34.098900 -117.224253 289 1146ft 10kts
14-Aug-18 18:51 34.099632 -117.227037 286 1138ft 21kts
14-Aug-18 18:52 34.101103 -117.233089 284 1125ft 14kts
14-Aug-18 18:53 34.102729 -117.239700 284 1110ft 22kts
14-Aug-18 18:54 34.104463 -117.245329 279 1098ft 0kts

Navigation Log

Ident Type
1. L08 Airport
2. KSBD Airport